Dillingham Airport Dillingham US
ICAO: PADL
IATA:
Category: Medium
Scheduled Services:

Elevation: 81 ft
TransAlt. 18000 ft.

Airport Communications:
ATIS:125
AWOS 3:135.55
ANCHORAGE CNTR:132.75
CTAF:123.6
RDO:122.3

PADL Zoom In..

If you have problems with the map follow the link
https://www.worldairports.se/pages/airport.php?
ICAO=PADL

Runways:

(A) RW 01 length 6400 ft width 150 ft
LOC 111.90 / hdg 11

(B) RW 19 length 6400 ft width 150 ft
LOC 111.90 / hdg 191

Location; PADL
Day. 07 / Time. 09.56 Zulu
* Altimeter: 28.93
* Temperature: 02° c. 35.6°f.
* Wind from: 090° Speed 12 kn with Gusts up to 18 kn.
Dewpoint: 02° c.
Visibility: 7 Statute Miles.
Clouds: Overcast 2100 ft.

PADL 070956Z AUTO 09012G18KT 7SM UP OVC021 02/02 A2893 RMK AO2 RAE16UPB16 SLP798 P0008 T00220017 FZRANO


Wind From 090°
Speed 12 kn.

 
 
jpsmedia worldairports.se 2019   terms of use